Time;durP1;ratioP1;P1;durP2;ratioP2;P2;SDS_P1;SDS_P2;PMS_P1;PMS_P2;Temp;Humidity;BMP_temperature;BMP_pressure;BME280_temperature;BME280_humidity;BME280_pressure;Samples;Min_cycle;Max_cycle;Signal;HPM_P1;HPM_P2
2024/02/22 00:00:50;;;;;;;22.85;10.73;;;;;;;-2.82;82.88;100416.91;5050586;28;20072;-66
2024/02/22 00:03:16;;;;;;;21.67;11.02;;;;;;;-3.00;82.76;100386.22;5060288;28;20053;-67
2024/02/22 00:05:42;;;;;;;29.55;11.85;;;;;;;-2.70;82.89;100416.69;5062151;28;20435;-68
2024/02/22 00:08:08;;;;;;;25.45;11.05;;;;;;;-2.86;82.04;100410.78;5078747;28;21898;-67
2024/02/22 00:10:35;;;;;;;24.10;11.35;;;;;;;-3.14;82.07;100381.22;5063171;28;20036;-65
2024/02/22 00:13:01;;;;;;;28.27;11.43;;;;;;;-2.88;82.71;100404.72;5060146;28;20051;-65
2024/02/22 00:15:28;;;;;;;26.42;10.25;;;;;;;-2.80;82.57;100411.13;5075752;28;20135;-66
2024/02/22 00:17:55;;;;;;;22.83;10.43;;;;;;;-2.95;82.16;100388.22;5044316;28;20127;-67
2024/02/22 00:20:22;;;;;;;23.85;11.57;;;;;;;-2.91;82.86;100379.06;5070274;28;20051;-66
2024/02/22 00:22:48;;;;;;;28.83;12.15;;;;;;;-2.81;82.52;100389.00;5061750;28;20996;-66
2024/02/22 00:25:15;;;;;;;24.73;11.02;;;;;;;-2.82;82.49;100399.97;5042387;28;20067;-66
2024/02/22 00:27:42;;;;;;;27.80;12.13;;;;;;;-2.88;82.69;100374.16;5061627;28;20143;-66
2024/02/22 00:30:10;;;;;;;24.13;10.68;;;;;;;-2.88;82.77;100361.41;5076729;28;20047;-66
2024/02/22 00:32:39;;;;;;;26.17;11.60;;;;;;;-2.83;82.67;100377.84;5062408;28;20037;-67
2024/02/22 00:35:05;;;;;;;27.83;10.55;;;;;;;-2.76;81.97;100397.72;5044647;28;20436;-66
2024/02/22 00:37:37;;;;;;;26.65;11.43;;;;;;;-2.72;82.50;100396.25;5058814;28;20139;-65
2024/02/22 00:40:04;;;;;;;23.42;11.02;;;;;;;-2.68;82.70;100399.84;5061470;28;20064;-67
2024/02/22 00:42:34;;;;;;;24.08;10.95;;;;;;;-2.95;81.90;100361.88;5059188;28;20502;-67
2024/02/22 00:45:01;;;;;;;26.77;11.90;;;;;;;-2.87;82.47;100378.44;5059603;28;20134;-66
2024/02/22 00:47:30;;;;;;;23.20;10.85;;;;;;;-2.87;82.29;100386.09;5062688;28;20037;-66
2024/02/22 00:49:56;;;;;;;25.27;11.63;;;;;;;-2.93;82.63;100375.56;5060918;28;20541;-66
2024/02/22 00:52:22;;;;;;;29.88;12.27;;;;;;;-3.18;82.63;100321.63;5062304;28;20094;-67
2024/02/22 00:54:48;;;;;;;29.33;12.18;;;;;;;-2.78;82.98;100371.31;5064234;28;21460;-67
2024/02/22 00:57:14;;;;;;;27.75;11.30;;;;;;;-2.63;82.73;100395.88;5047072;28;20052;-66
2024/02/22 00:59:40;;;;;;;24.33;11.35;;;;;;;-3.00;82.54;100317.47;5059531;28;20170;-66
2024/02/22 01:02:07;;;;;;;25.50;11.90;;;;;;;-2.62;82.89;100377.22;5046230;28;20574;-65
2024/02/22 01:04:33;;;;;;;27.10;11.98;;;;;;;-2.50;82.85;100392.31;5047646;28;20043;-65
2024/02/22 01:06:59;;;;;;;31.92;12.07;;;;;;;-2.57;82.93;100381.78;5071958;28;20036;-65
2024/02/22 01:09:25;;;;;;;26.75;12.55;;;;;;;-2.68;82.65;100351.41;5049096;28;20044;-65
2024/02/22 01:11:53;;;;;;;32.53;13.00;;;;;;;-2.62;82.38;100364.50;5063482;28;20131;-65
2024/02/22 01:14:22;;;;;;;24.73;11.73;;;;;;;-2.54;82.52;100380.19;5064441;28;20442;-65
2024/02/22 01:16:49;;;;;;;22.67;10.25;;;;;;;-2.73;82.13;100367.31;5064869;28;20576;-65
2024/02/22 01:19:17;;;;;;;25.25;12.02;;;;;;;-2.58;82.43;100385.13;5060506;28;20048;-66
2024/02/22 01:21:44;;;;;;;30.67;12.80;;;;;;;-2.64;82.85;100378.81;5044985;28;20041;-64
2024/02/22 01:24:10;;;;;;;30.30;12.60;;;;;;;-2.65;82.25;100375.41;5066397;28;20041;-66
2024/02/22 01:26:38;;;;;;;32.28;12.32;;;;;;;-2.70;82.16;100369.19;5077767;28;20041;-66
2024/02/22 01:29:04;;;;;;;27.92;12.45;;;;;;;-2.54;83.10;100375.97;5062795;28;20044;-65
2024/02/22 01:31:31;;;;;;;26.27;11.75;;;;;;;-2.73;81.99;100358.81;5049829;28;20044;-66
2024/02/22 01:33:57;;;;;;;28.45;11.93;;;;;;;-2.66;82.32;100382.97;5065873;28;20147;-66
2024/02/22 01:36:23;;;;;;;30.98;13.40;;;;;;;-2.72;82.58;100366.53;5080002;28;20458;-67
2024/02/22 01:38:49;;;;;;;26.17;12.40;;;;;;;-2.66;82.67;100360.03;5065762;28;20450;-67
2024/02/22 01:41:15;;;;;;;27.25;11.82;;;;;;;-2.62;82.21;100375.56;5064614;28;20426;-65
2024/02/22 01:43:44;;;;;;;28.27;12.15;;;;;;;-2.64;82.47;100383.91;5062589;28;20091;-66
2024/02/22 01:46:10;;;;;;;28.10;12.80;;;;;;;-2.66;82.81;100378.75;5078922;28;20059;-65
2024/02/22 01:48:36;;;;;;;27.33;12.38;;;;;;;-2.65;82.90;100352.47;5063689;28;20049;-66
2024/02/22 01:51:03;;;;;;;28.33;11.40;;;;;;;-2.44;82.69;100368.00;5059425;28;20041;-66
2024/02/22 01:53:31;;;;;;;31.38;12.43;;;;;;;-2.62;81.89;100355.16;5061744;28;20515;-67
2024/02/22 01:56:01;;;;;;;26.25;11.98;;;;;;;-2.74;82.48;100340.09;5064867;28;20044;-66
2024/02/22 01:58:35;;;;;;;24.88;11.15;;;;;;;-2.62;82.46;100352.63;5061110;28;20055;-65
2024/02/22 02:01:10;;;;;;;27.30;11.68;;;;;;;-2.60;82.42;100357.81;5049012;28;20083;-66
2024/02/22 02:03:38;;;;;;;25.65;11.38;;;;;;;-2.77;82.24;100345.06;5062626;28;20040;-65
2024/02/22 02:06:05;;;;;;;27.20;11.45;;;;;;;-2.73;82.38;100354.59;5063446;28;20044;-64
2024/02/22 02:08:32;;;;;;;29.13;11.45;;;;;;;-2.78;82.32;100348.41;5064435;28;20040;-65
2024/02/22 02:10:58;;;;;;;27.00;12.57;;;;;;;-2.79;82.72;100327.91;5063683;28;20136;-65
2024/02/22 02:13:24;;;;;;;27.38;12.68;;;;;;;-2.73;82.66;100331.66;5042258;28;20262;-65
2024/02/22 02:15:50;;;;;;;29.45;12.93;;;;;;;-2.71;82.80;100334.31;5060545;28;20455;-66
2024/02/22 02:18:17;;;;;;;29.17;13.13;;;;;;;-2.64;82.75;100349.09;5063658;28;20518;-66
2024/02/22 02:20:49;;;;;;;25.80;12.50;;;;;;;-2.63;82.75;100350.00;5062228;28;20045;-65
2024/02/22 02:23:33;;;;;;;;;;;;;;;-2.64;82.50;100345.69;5065928;28;20071;-66
2024/02/22 02:26:04;;;;;;;29.42;11.05;;;;;;;-2.84;82.57;100322.56;5044720;28;20320;-67
2024/02/22 02:28:30;;;;;;;31.55;14.02;;;;;;;-2.79;82.87;100343.19;5077977;28;20142;-66
2024/02/22 02:30:56;;;;;;;30.38;12.40;;;;;;;-2.69;82.90;100336.91;5071380;28;20147;-65
2024/02/22 02:33:22;;;;;;;25.55;12.02;;;;;;;-2.70;82.82;100336.06;5046366;28;20040;-66
2024/02/22 02:35:50;;;;;;;26.40;12.00;;;;;;;-2.72;82.47;100335.97;5064461;28;20498;-65
2024/02/22 02:38:16;;;;;;;29.75;12.50;;;;;;;-2.75;82.58;100334.94;5065464;28;20513;-66
2024/02/22 02:40:42;;;;;;;33.40;12.98;;;;;;;-2.78;82.06;100335.66;5048411;28;20075;-66
2024/02/22 02:43:09;;;;;;;35.35;13.98;;;;;;;-2.67;82.88;100327.69;5064869;28;20771;-65
2024/02/22 02:45:35;;;;;;;27.63;11.48;;;;;;;-2.64;82.55;100345.69;5049263;28;20040;-66
2024/02/22 02:48:01;;;;;;;27.05;11.85;;;;;;;-2.75;81.97;100334.94;5062553;28;20037;-65
2024/02/22 02:50:27;;;;;;;28.27;11.68;;;;;;;-2.88;82.37;100307.91;5049135;28;20044;-67
2024/02/22 02:52:53;;;;;;;31.25;13.57;;;;;;;-2.81;82.46;100315.09;5061321;28;20051;-67
2024/02/22 02:55:20;;;;;;;31.65;12.95;;;;;;;-2.80;82.47;100311.75;5063368;28;20049;-65
2024/02/22 02:57:46;;;;;;;33.33;13.60;;;;;;;-2.72;83.12;100320.66;5077918;28;20047;-66
2024/02/22 03:00:16;;;;;;;29.90;12.65;;;;;;;-2.77;82.59;100313.59;5063403;28;20135;-66
2024/02/22 03:02:42;;;;;;;31.00;12.00;;;;;;;-2.85;82.81;100305.53;5076851;28;20052;-66
2024/02/22 03:05:09;;;;;;;32.33;13.32;;;;;;;-2.93;82.68;100294.94;5063038;28;20159;-65
2024/02/22 03:07:36;;;;;;;32.92;13.43;;;;;;;-2.80;82.49;100308.31;5054942;28;20063;-66
2024/02/22 03:10:05;;;;;;;30.83;12.50;;;;;;;-2.77;82.71;100304.28;5061788;28;20490;-66
2024/02/22 03:12:31;;;;;;;27.55;11.32;;;;;;;-2.69;82.45;100329.28;5062934;28;20066;-66
2024/02/22 03:14:57;;;;;;;27.35;12.52;;;;;;;-2.99;82.74;100274.25;5062654;28;20410;-66
2024/02/22 03:17:24;;;;;;;26.77;11.73;;;;;;;-2.87;82.95;100302.03;5061529;28;20068;-66
2024/02/22 03:19:52;;;;;;;25.25;11.63;;;;;;;-2.78;82.72;100310.19;5050560;28;20059;-67
2024/02/22 03:22:21;;;;;;;26.15;11.98;;;;;;;-2.66;82.70;100319.25;5062785;28;20134;-66
2024/02/22 03:24:48;;;;;;;29.33;12.75;;;;;;;-2.75;82.70;100332.38;5062984;28;20063;-65
2024/02/22 03:27:14;;;;;;;31.90;13.50;;;;;;;-2.78;82.26;100325.47;5059846;28;20051;-66
2024/02/22 03:29:41;;;;;;;31.98;13.38;;;;;;;-2.98;82.69;100300.59;5049036;28;20040;-66
2024/02/22 03:32:08;;;;;;;35.17;13.60;;;;;;;-2.89;82.47;100303.63;5064634;28;20437;-66
2024/02/22 03:34:35;;;;;;;28.00;12.68;;;;;;;-2.75;82.89;100317.97;5063588;28;20047;-65
2024/02/22 03:37:02;;;;;;;29.58;12.20;;;;;;;-2.77;82.82;100316.13;5048107;28;21514;-65
2024/02/22 03:39:30;;;;;;;27.77;11.65;;;;;;;-2.88;82.35;100310.47;5063806;28;20071;-66
2024/02/22 03:41:56;;;;;;;26.70;12.23;;;;;;;-2.90;82.48;100306.97;5074595;28;20044;-66
2024/02/22 03:44:22;;;;;;;26.80;11.90;;;;;;;-2.83;82.97;100324.34;5042584;28;20414;-67
2024/02/22 03:46:50;;;;;;;32.60;13.02;;;;;;;-2.85;82.75;100313.19;5047597;28;20040;-67
2024/02/22 03:49:16;;;;;;;27.58;12.13;;;;;;;-2.72;82.90;100325.78;5063011;28;20040;-66
2024/02/22 03:51:42;;;;;;;31.33;13.18;;;;;;;-2.59;83.05;100331.53;5061450;28;20114;-66
2024/02/22 03:54:09;;;;;;;34.42;13.57;;;;;;;-2.84;82.29;100306.41;5059662;28;20048;-65
2024/02/22 03:56:36;;;;;;;25.27;10.68;;;;;;;-2.96;82.61;100294.78;5064737;28;20036;-67
2024/02/22 03:59:03;;;;;;;35.38;13.25;;;;;;;-2.84;82.26;100329.31;5045488;28;20045;-69
2024/02/22 04:01:30;;;;;;;29.65;13.65;;;;;;;-2.83;82.71;100341.28;5059928;28;20074;-68
2024/02/22 04:03:56;;;;;;;29.08;12.10;;;;;;;-2.88;82.73;100333.41;5062318;28;20048;-67
2024/02/22 04:06:22;;;;;;;31.85;13.10;;;;;;;-2.82;82.54;100341.38;5061120;28;20411;-66
2024/02/22 04:09:07;;;;;;;33.15;13.25;;;;;;;-2.96;82.54;100317.69;5077136;28;20097;-67
2024/02/22 04:11:33;;;;;;;28.13;11.98;;;;;;;-3.11;82.61;100293.97;5057988;28;20044;-65
2024/02/22 04:14:00;;;;;;;36.83;14.10;;;;;;;-2.81;82.95;100350.78;5062140;28;20150;-66
2024/02/22 04:16:28;;;;;;;30.40;12.45;;;;;;;-2.80;82.74;100349.09;5046733;28;20059;-68
2024/02/22 04:18:54;;;;;;;35.47;13.18;;;;;;;-2.88;82.72;100346.13;5079290;28;20047;-68
2024/02/22 04:21:20;;;;;;;33.55;13.73;;;;;;;-3.04;82.74;100321.50;5046950;28;20040;-68
2024/02/22 04:23:46;;;;;;;30.38;13.15;;;;;;;-2.93;82.96;100316.97;5061626;28;20174;-66
2024/02/22 04:26:12;;;;;;;35.25;12.35;;;;;;;-2.82;83.12;100325.19;5062118;28;20121;-67
2024/02/22 04:28:38;;;;;;;32.08;13.57;;;;;;;-2.79;83.08;100346.63;5061326;28;20049;-67
2024/02/22 04:31:06;;;;;;;27.90;13.02;;;;;;;-2.81;82.64;100360.06;5060526;28;20093;-69
2024/02/22 04:33:32;;;;;;;37.15;13.20;;;;;;;-2.89;82.71;100352.03;5046174;28;20048;-68
2024/02/22 04:36:00;;;;;;;32.88;13.02;;;;;;;-2.84;82.92;100349.72;5060018;28;20044;-66
2024/02/22 04:38:26;;;;;;;33.10;13.95;;;;;;;-2.91;83.11;100329.03;5062126;28;20138;-69
2024/02/22 04:40:52;;;;;;;28.73;12.38;;;;;;;-2.79;82.74;100359.38;5049141;28;20110;-67
2024/02/22 04:43:18;;;;;;;34.17;13.52;;;;;;;-3.07;83.23;100295.84;5061207;28;20131;-68
2024/02/22 04:45:44;;;;;;;32.30;13.23;;;;;;;-3.01;83.09;100295.34;5059208;28;20127;-68
2024/02/22 04:48:10;;;;;;;30.42;12.93;;;;;;;-2.64;83.20;100346.56;5061038;28;20193;-68
2024/02/22 04:50:36;;;;;;;34.25;13.30;;;;;;;-2.55;83.05;100356.38;5060992;28;20061;-67
2024/02/22 04:53:04;;;;;;;31.30;12.52;;;;;;;-2.69;82.85;100339.47;5061038;28;20412;-68
2024/02/22 04:55:33;;;;;;;29.55;12.70;;;;;;;-2.62;82.86;100344.97;5077233;28;20133;-69
2024/02/22 04:57:59;;;;;;;32.05;12.75;;;;;;;-2.54;83.22;100353.03;5069753;28;20384;-66
2024/02/22 05:00:29;;;;;;;30.27;12.10;;;;;;;-2.63;82.37;100350.84;5065931;28;20068;-69
2024/02/22 05:02:55;;;;;;;29.73;12.80;;;;;;;-2.77;82.76;100349.25;5079265;28;20044;-69
2024/02/22 05:05:21;;;;;;;32.10;13.38;;;;;;;-2.84;83.11;100331.88;5065766;28;20035;-68
2024/02/22 05:07:47;;;;;;;30.08;12.70;;;;;;;-2.81;83.25;100325.28;5068523;28;20075;-67
2024/02/22 05:10:15;;;;;;;31.63;12.63;;;;;;;-2.81;82.32;100347.34;5050156;28;20063;-68
2024/02/22 05:12:41;;;;;;;33.50;14.93;;;;;;;-2.95;82.96;100326.19;5081688;28;20043;-67
2024/02/22 05:15:10;;;;;;;28.95;12.55;;;;;;;-2.83;82.91;100337.06;5068520;28;20040;-69
2024/02/22 05:17:39;;;;;;;35.15;13.60;;;;;;;-2.74;82.58;100357.94;5050551;28;20131;-68
2024/02/22 05:20:07;;;;;;;33.83;13.52;;;;;;;-2.80;83.16;100332.16;5050534;28;20263;-69
2024/02/22 05:22:33;;;;;;;29.88;13.05;;;;;;;-2.64;82.96;100345.69;5062957;28;20044;-68
2024/02/22 05:25:00;;;;;;;29.25;12.95;;;;;;;-2.48;83.17;100355.91;5066316;28;20045;-67
2024/02/22 05:27:26;;;;;;;31.83;12.65;;;;;;;-2.52;83.11;100330.19;5064311;28;20095;-66
2024/02/22 05:29:52;;;;;;;31.92;13.07;;;;;;;-2.58;82.79;100330.72;5064575;28;20120;-66
2024/02/22 05:32:21;;;;;;;37.92;14.38;;;;;;;-2.46;83.15;100340.69;5064960;28;20452;-67
2024/02/22 05:34:48;;;;;;;30.33;12.57;;;;;;;-2.67;82.80;100309.84;5062380;28;20107;-67
2024/02/22 05:37:14;;;;;;;36.55;13.77;;;;;;;-2.70;82.62;100312.22;5063628;28;20490;-66
2024/02/22 05:39:40;;;;;;;32.17;13.77;;;;;;;-2.63;83.03;100329.59;5071079;28;20070;-67
2024/02/22 05:42:09;;;;;;;31.25;12.38;;;;;;;-2.65;82.97;100318.47;5050404;28;20071;-68
2024/02/22 05:44:36;;;;;;;26.70;12.52;;;;;;;-2.50;82.59;100329.44;5048801;28;20058;-67
2024/02/22 05:47:03;;;;;;;29.48;13.98;;;;;;;-2.65;82.92;100316.81;5066406;28;20083;-68
2024/02/22 05:49:30;;;;;;;36.42;12.82;;;;;;;-2.56;83.13;100316.41;5081188;28;20044;-67
2024/02/22 05:51:59;;;;;;;33.95;12.52;;;;;;;-2.24;83.29;100346.91;5059920;28;20049;-68
2024/02/22 05:54:25;;;;;;;37.75;14.13;;;;;;;-2.24;83.17;100344.38;5050193;28;20453;-68
2024/02/22 05:56:51;;;;;;;33.30;13.20;;;;;;;-2.28;82.48;100345.84;5062719;28;20041;-68
2024/02/22 05:59:16;;;;;;;32.13;13.10;;;;;;;-2.26;82.58;100349.38;5063142;28;20186;-67
2024/02/22 06:01:43;;;;;;;33.50;13.48;;;;;;;-2.45;82.88;100320.38;5076100;28;20586;-67
2024/02/22 06:04:09;;;;;;;33.03;13.75;;;;;;;-2.45;82.54;100330.56;5065358;28;20048;-68
2024/02/22 06:06:34;;;;;;;33.17;12.80;;;;;;;-2.24;83.18;100352.88;5056601;28;20047;-65
2024/02/22 06:09:00;;;;;;;33.58;12.27;;;;;;;-2.22;83.41;100342.78;5057870;28;20505;-64
2024/02/22 06:11:26;;;;;;;29.15;12.10;;;;;;;-2.26;82.90;100321.31;5059235;28;20044;-65
2024/02/22 06:13:52;;;;;;;28.77;12.65;;;;;;;-2.28;82.44;100328.91;5060152;28;20049;-66
2024/02/22 06:16:18;;;;;;;31.52;12.85;;;;;;;-2.30;82.92;100330.50;5062726;28;20426;-68
2024/02/22 06:18:44;;;;;;;33.50;12.98;;;;;;;-2.31;82.97;100327.84;5075684;28;20113;-67
2024/02/22 06:21:10;;;;;;;32.25;12.27;;;;;;;-2.20;83.37;100347.13;5060051;28;20091;-70
2024/02/22 06:23:37;;;;;;;31.33;13.00;;;;;;;-2.14;82.80;100344.03;5061210;28;20751;-70
2024/02/22 06:26:04;;;;;;;30.88;12.73;;;;;;;-2.03;82.73;100365.88;5060624;28;20047;-68
2024/02/22 06:28:34;;;;;;;31.80;13.80;;;;;;;-2.09;82.90;100345.13;5043484;28;20068;-66
2024/02/22 06:31:02;;;;;;;29.67;13.52;;;;;;;-1.84;83.41;100354.91;5063334;28;20406;-65
2024/02/22 06:33:35;;;;;;;28.52;12.18;;;;;;;-1.80;83.17;100362.72;5076101;28;20054;-63
2024/02/22 06:36:12;;;;;;;26.92;11.80;;;;;;;-2.17;82.84;100296.28;5060387;28;20040;-66
2024/02/22 06:38:45;;;;;;;29.67;12.93;;;;;;;-2.03;82.85;100327.59;5073916;28;20040;-67
2024/02/22 06:41:14;;;;;;;30.08;12.90;;;;;;;-1.72;83.35;100352.06;5073514;28;20238;-65
2024/02/22 06:43:40;;;;;;;28.27;12.70;;;;;;;-1.64;83.33;100351.59;5058941;28;20040;-64
2024/02/22 06:46:06;;;;;;;28.13;12.70;;;;;;;-1.82;82.97;100332.88;5062560;28;20036;-64
2024/02/22 06:48:33;;;;;;;34.95;14.20;;;;;;;-1.77;83.19;100329.69;5044948;28;21113;-64
2024/02/22 06:50:59;;;;;;;26.80;12.23;;;;;;;-1.70;82.58;100345.38;5068649;28;20055;-64
2024/02/22 06:53:26;;;;;;;33.47;13.52;;;;;;;-1.65;83.69;100339.63;5063040;28;20681;-63
2024/02/22 06:55:52;;;;;;;31.15;13.13;;;;;;;-1.63;83.03;100321.03;5064233;28;20049;-64
2024/02/22 06:58:19;;;;;;;29.77;11.80;;;;;;;-1.54;81.92;100335.91;5078656;28;20041;-64
2024/02/22 07:00:45;;;;;;;26.27;11.15;;;;;;;-1.83;82.06;100323.47;5063202;28;20110;-65
2024/02/22 07:03:12;;;;;;;28.38;12.35;;;;;;;-1.68;82.60;100350.56;5060810;28;20067;-63
2024/02/22 07:05:38;;;;;;;32.33;13.90;;;;;;;-1.70;82.41;100349.63;5068434;28;20043;-63
2024/02/22 07:08:04;;;;;;;30.77;12.60;;;;;;;-1.64;82.95;100355.00;5061025;28;20044;-64
2024/02/22 07:10:30;;;;;;;25.35;11.10;;;;;;;-1.52;82.74;100357.28;5060009;28;20048;-63
2024/02/22 07:12:56;;;;;;;31.30;13.30;;;;;;;-1.48;82.41;100355.78;5075481;28;20105;-62
2024/02/22 07:15:22;;;;;;;29.73;12.93;;;;;;;-1.38;82.87;100357.97;5062447;28;20048;-64
2024/02/22 07:17:48;;;;;;;28.17;11.90;;;;;;;-1.50;82.28;100354.81;5046805;28;20559;-68
2024/02/22 07:20:14;;;;;;;34.60;14.40;;;;;;;-1.62;82.07;100335.53;5063971;28;20040;-64
2024/02/22 07:22:48;;;;;;;27.88;11.95;;;;;;;-1.55;82.28;100342.72;5049211;28;20112;-65
2024/02/22 07:25:16;;;;;;;29.67;12.23;;;;;;;-1.46;82.71;100343.97;5076704;28;20040;-65
2024/02/22 07:27:42;;;;;;;29.60;12.75;;;;;;;-1.37;82.77;100339.28;5031943;28;20135;-66
2024/02/22 07:30:09;;;;;;;32.75;13.20;;;;;;;-1.21;82.35;100351.97;5042464;28;20040;-68
2024/02/22 07:32:35;;;;;;;28.90;12.88;;;;;;;-1.38;83.00;100309.44;5056960;28;20056;-69
2024/02/22 07:35:04;;;;;;;29.83;12.73;;;;;;;-1.24;82.88;100346.75;5057608;28;20044;-68
2024/02/22 07:37:30;;;;;;;35.92;13.05;;;;;;;-1.21;82.91;100328.97;5059342;28;20056;-70
2024/02/22 07:39:56;;;;;;;29.08;12.43;;;;;;;-0.94;82.88;100369.41;5064097;28;20052;-70
2024/02/22 07:42:22;;;;;;;29.73;13.30;;;;;;;-0.88;82.93;100362.84;5058686;28;20710;-69
2024/02/22 07:44:48;;;;;;;31.90;13.40;;;;;;;-0.76;83.12;100351.50;5061784;28;20068;-68
2024/02/22 07:47:15;;;;;;;33.65;13.48;;;;;;;-0.69;82.88;100370.56;5038503;28;20490;-69
2024/02/22 07:49:41;;;;;;;33.17;12.70;;;;;;;-1.05;82.24;100334.84;5072565;28;20051;-67
2024/02/22 07:52:08;;;;;;;29.92;13.32;;;;;;;-0.92;82.40;100362.69;5072782;28;20044;-67
2024/02/22 07:54:33;;;;;;;34.08;14.18;;;;;;;-0.94;82.59;100351.53;5060162;28;20454;-68
2024/02/22 07:57:01;;;;;;;31.05;12.85;;;;;;;-1.05;82.56;100332.28;5027170;28;20045;-68
2024/02/22 07:59:27;;;;;;;32.05;13.27;;;;;;;-0.98;81.94;100359.00;5059562;28;20040;-68
2024/02/22 08:01:53;;;;;;;32.95;12.65;;;;;;;-0.92;82.39;100341.41;5061221;28;20052;-70
2024/02/22 08:04:19;;;;;;;38.88;13.98;;;;;;;-0.61;83.31;100369.22;5074320;28;20071;-67
2024/02/22 08:06:46;;;;;;;28.02;12.75;;;;;;;-0.66;82.75;100323.81;5059838;28;20059;-68
2024/02/22 08:09:12;;;;;;;31.85;12.73;;;;;;;-0.29;83.59;100358.69;5066836;28;20037;-65
2024/02/22 08:11:38;;;;;;;29.95;13.55;;;;;;;-0.39;83.17;100339.50;5045364;28;20047;-65
2024/02/22 08:14:04;;;;;;;26.70;12.80;;;;;;;-0.21;82.95;100356.47;5065382;28;20214;-69
2024/02/22 08:16:30;;;;;;;28.23;13.20;;;;;;;-0.64;81.97;100300.06;5066648;28;20648;-68
2024/02/22 08:18:56;;;;;;;31.20;11.65;;;;;;;-0.42;81.78;100375.16;5067778;28;20121;-68
2024/02/22 08:21:23;;;;;;;32.63;12.63;;;;;;;-0.73;81.95;100337.97;5046436;28;20043;-67
2024/02/22 08:23:52;;;;;;;29.90;13.07;;;;;;;-0.42;83.13;100357.25;5063006;28;20041;-66
2024/02/22 08:26:19;;;;;;;32.58;13.05;;;;;;;-0.34;82.34;100361.06;5073701;28;20049;-65
2024/02/22 08:28:45;;;;;;;29.23;12.98;;;;;;;-0.13;83.00;100364.47;5057509;28;20113;-63
2024/02/22 08:31:11;;;;;;;30.02;12.20;;;;;;;-0.20;82.63;100355.66;5061581;28;20072;-68
2024/02/22 08:33:37;;;;;;;28.05;12.27;;;;;;;-0.36;82.79;100348.97;5074250;28;20637;-68
2024/02/22 08:36:04;;;;;;;28.77;13.18;;;;;;;-0.07;83.10;100369.84;5066338;28;20041;-69
2024/02/22 08:38:30;;;;;;;27.85;12.68;;;;;;;0.03;82.89;100346.41;5065418;28;20041;-69
2024/02/22 08:40:56;;;;;;;30.17;12.88;;;;;;;0.21;82.65;100376.16;5034392;28;20157;-68
2024/02/22 08:43:24;;;;;;;30.95;13.57;;;;;;;-0.33;81.97;100314.19;5063880;28;20044;-67
2024/02/22 08:45:51;;;;;;;32.60;13.02;;;;;;;-0.16;82.19;100353.28;5066935;28;20035;-69
2024/02/22 08:48:17;;;;;;;32.83;13.77;;;;;;;-0.21;82.41;100338.56;5077090;28;20059;-70
2024/02/22 08:50:47;;;;;;;32.17;14.20;;;;;;;-0.48;82.10;100311.84;5064236;28;20045;-70
2024/02/22 08:53:15;;;;;;;30.60;12.57;;;;;;;-0.15;82.30;100372.09;5053787;28;20102;-68
2024/02/22 08:55:42;;;;;;;34.33;14.23;;;;;;;-0.18;82.48;100383.03;5058242;28;20502;-69
2024/02/22 08:58:08;;;;;;;29.00;12.02;;;;;;;-0.14;82.17;100376.41;5060998;28;20040;-69
2024/02/22 09:00:34;;;;;;;34.38;13.70;;;;;;;-0.34;81.57;100357.59;5073512;28;20073;-69
2024/02/22 09:03:14;;;;;;;;;;;;;;;;;;;;;
2024/02/22 09:05:44;;;;;;;32.55;14.07;;;;;;;-0.58;82.08;100355.69;5057604;28;20028;-68
2024/02/22 09:08:10;;;;;;;30.23;13.75;;;;;;;-0.35;82.57;100356.75;5074992;28;21441;-70
2024/02/22 09:10:39;;;;;;;31.98;13.55;;;;;;;-0.45;82.62;100305.97;5058450;28;20039;-71
2024/02/22 09:13:06;;;;;;;28.60;12.75;;;;;;;-0.04;83.18;100368.28;5056357;28;20036;-70
2024/02/22 09:15:32;;;;;;;29.52;12.85;;;;;;;0.16;83.04;100357.16;5040231;28;20036;-70
2024/02/22 09:17:58;;;;;;;25.25;13.00;;;;;;;0.04;82.13;100354.97;5055843;28;20036;-72
2024/02/22 09:20:24;;;;;;;28.70;12.82;;;;;;;0.21;82.85;100359.09;5059663;28;20502;-71
2024/02/22 09:22:50;;;;;;;29.38;12.68;;;;;;;0.18;82.59;100350.44;5066251;28;20592;-69
2024/02/22 09:25:16;;;;;;;29.83;12.48;;;;;;;-0.06;82.28;100307.63;5045436;28;20036;-71
2024/02/22 09:27:43;;;;;;;33.95;13.43;;;;;;;0.18;81.57;100369.22;5058816;28;20032;-70
2024/02/22 09:30:10;;;;;;;29.75;13.35;;;;;;;0.29;82.54;100374.78;5044191;28;20530;-68
2024/02/22 09:32:39;;;;;;;28.10;13.45;;;;;;;0.29;82.64;100339.84;5071745;28;20545;-71
2024/02/22 09:35:06;;;;;;;27.38;13.30;;;;;;;0.42;82.15;100373.59;5056138;28;20487;-66
2024/02/22 09:37:32;;;;;;;29.83;13.60;;;;;;;0.25;82.52;100363.56;5055998;28;20527;-65
2024/02/22 09:39:58;;;;;;;28.13;13.75;;;;;;;0.27;82.27;100354.25;5060026;28;20101;-65
2024/02/22 09:42:27;;;;;;;32.97;13.32;;;;;;;0.14;82.29;100339.16;5057047;28;20098;-65
2024/02/22 09:44:55;;;;;;;33.28;12.88;;;;;;;0.36;82.45;100355.44;5060682;28;20043;-63
2024/02/22 09:47:25;;;;;;;31.40;13.13;;;;;;;0.55;82.96;100367.31;5062916;28;20033;-63
2024/02/22 09:49:57;;;;;;;28.50;13.07;;;;;;;0.57;82.71;100329.81;5044292;28;20050;-63
2024/02/22 09:52:24;;;;;;;27.63;12.82;;;;;;;0.66;82.83;100375.44;5060271;28;20052;-65
2024/02/22 09:54:51;;;;;;;29.38;12.27;;;;;;;0.45;81.78;100340.44;5059511;28;20045;-64
2024/02/22 09:57:17;;;;;;;29.85;12.77;;;;;;;0.40;82.64;100332.59;5073438;28;20068;-69
2024/02/22 09:59:51;;;;;;;29.58;12.68;;;;;;;0.67;83.25;100351.56;5050960;28;20056;-71
2024/02/22 10:02:18;;;;;;;26.35;11.70;;;;;;;0.78;82.85;100336.63;5080371;28;20047;-64
2024/02/22 10:04:53;;;;;;;29.15;12.50;;;;;;;1.05;83.36;100347.06;5067452;28;20092;-65
2024/02/22 10:07:33;;;;;;;28.33;12.30;;;;;;;0.85;81.87;100342.03;5067408;28;20037;-70
2024/02/22 10:10:00;;;;;;;23.75;11.50;;;;;;;0.83;82.50;100333.41;5081989;28;20044;-65
2024/02/22 10:12:32;;;;;;;28.50;12.60;;;;;;;0.86;82.25;100343.78;5063743;28;20044;-68
2024/02/22 10:15:08;;;;;;;;;;;;;;;0.89;82.74;100345.59;5067133;28;20052;-66
2024/02/22 10:17:36;;;;;;;29.15;11.57;;;;;;;0.88;82.67;100360.09;5077823;28;20020;-65
2024/02/22 10:20:07;;;;;;;28.48;12.10;;;;;;;0.88;82.45;100349.84;5060475;28;20044;-66
2024/02/22 10:22:42;;;;;;;29.30;12.77;;;;;;;0.82;82.46;100339.34;5064179;28;20567;-68
2024/02/22 10:25:11;;;;;;;27.63;12.43;;;;;;;0.80;82.71;100327.31;5049968;28;20040;-66
2024/02/22 10:27:39;;;;;;;24.38;12.15;;;;;;;0.86;82.54;100343.78;5058622;28;20560;-68
2024/02/22 10:30:13;;;;;;;25.52;12.23;;;;;;;0.75;82.20;100329.69;5048680;28;20083;-69
2024/02/22 10:32:40;;;;;;;26.65;11.82;;;;;;;0.86;82.23;100356.59;5076772;28;20045;-69
2024/02/22 10:35:11;;;;;;;25.08;12.05;;;;;;;0.71;82.34;100336.38;5052580;28;20085;-68
2024/02/22 10:37:37;;;;;;;25.13;12.30;;;;;;;0.71;82.59;100361.13;5048401;28;20072;-66
2024/02/22 10:40:05;;;;;;;28.83;12.70;;;;;;;0.56;80.77;100357.13;5062008;28;20055;-64
2024/02/22 10:42:32;;;;;;;26.27;12.68;;;;;;;0.43;81.67;100353.22;5075437;28;20126;-68
2024/02/22 10:44:58;;;;;;;25.90;12.70;;;;;;;0.35;81.94;100346.00;5063830;28;20037;-67
2024/02/22 10:47:31;;;;;;;27.83;12.85;;;;;;;0.35;82.00;100358.78;5065625;28;20466;-66
2024/02/22 10:50:14;;;;;;;26.02;12.63;;;;;;;0.47;82.79;100356.75;5068768;28;20613;-72
2024/02/22 10:52:40;;;;;;;25.15;11.98;;;;;;;0.69;82.72;100334.56;5066856;28;20413;-67
2024/02/22 10:55:13;;;;;;;27.73;13.50;;;;;;;0.79;82.32;100340.94;5063773;28;20490;-68
2024/02/22 10:57:41;;;;;;;22.80;11.13;;;;;;;0.84;82.81;100353.09;5067127;28;20029;-67
2024/02/22 11:00:11;;;;;;;28.13;13.00;;;;;;;0.45;81.40;100343.00;5065440;28;20406;-68
2024/02/22 11:02:38;;;;;;;29.90;12.23;;;;;;;0.31;81.08;100347.56;5064687;28;20143;-68
2024/02/22 11:05:09;;;;;;;26.60;12.95;;;;;;;0.47;82.54;100346.50;5062694;28;20051;-67
2024/02/22 11:07:55;;;;;;;28.17;12.38;;;;;;;0.52;82.80;100347.59;5063550;28;20028;-68
2024/02/22 11:10:21;;;;;;;26.98;12.43;;;;;;;0.48;82.57;100329.44;5065597;28;20048;-71
2024/02/22 11:12:48;;;;;;;23.98;12.25;;;;;;;0.59;81.79;100341.88;5060429;28;20043;-72